createdAt,value
2024-03-16T00:01:24.219Z,88643.34
2024-03-16T00:04:09.305Z,88650.38
2024-03-16T00:06:54.271Z,88643.47
2024-03-16T00:09:39.328Z,88647.66
2024-03-16T00:12:24.299Z,88640.94
2024-03-16T00:15:09.352Z,88643.16
2024-03-16T00:17:54.354Z,88643.34
2024-03-16T00:20:39.597Z,88641.25
2024-03-16T00:23:24.605Z,88640.84
2024-03-16T00:26:09.859Z,88644.66
2024-03-16T00:28:55.161Z,88644.16
2024-03-16T00:31:40.227Z,88658.16
2024-03-16T00:34:25.313Z,88649.94
2024-03-16T00:37:10.274Z,88659.25
2024-03-16T00:39:55.485Z,88665.28
2024-03-16T00:42:40.450Z,88668.28
2024-03-16T00:45:25.700Z,88661.88
2024-03-16T00:48:10.792Z,88665.09
2024-03-16T00:50:55.934Z,88670.19
2024-03-16T00:53:41.109Z,88667.09
2024-03-16T00:56:26.173Z,88666.22
2024-03-16T00:59:11.444Z,88668.59
2024-03-16T01:01:56.669Z,88667.81
2024-03-16T01:04:41.736Z,88667.91
2024-03-16T01:07:26.803Z,88673.59
2024-03-16T01:10:11.870Z,88667.50
2024-03-16T01:12:57.231Z,88667.28
2024-03-16T01:15:42.172Z,88669.91
2024-03-16T01:18:27.416Z,88687.53
2024-03-16T01:21:12.506Z,88684.72
2024-03-16T01:23:57.753Z,88682.31
2024-03-16T01:26:42.944Z,88688.03
2024-03-16T01:29:28.063Z,88685.22
2024-03-16T01:32:13.126Z,88687.03
2024-03-16T01:34:58.103Z,88694.03
2024-03-16T01:37:43.334Z,88694.31
2024-03-16T01:40:28.456Z,88689.63
2024-03-16T01:43:13.825Z,88693.31
2024-03-16T01:45:58.994Z,88692.63
2024-03-16T01:48:43.978Z,88692.22
2024-03-16T01:51:29.212Z,88690.63
2024-03-16T01:54:14.123Z,88696.59
2024-03-16T01:56:59.272Z,88686.50
2024-03-16T01:59:44.330Z,88689.50
2024-03-16T02:02:29.526Z,88682.72
2024-03-16T02:05:14.507Z,88684.50
2024-03-16T02:07:59.546Z,88678.38
2024-03-16T02:10:44.824Z,88680.66
2024-03-16T02:13:29.809Z,88672.59
2024-03-16T02:16:14.930Z,88672.06
2024-03-16T02:19:00.036Z,88667.56
2024-03-16T02:21:45.084Z,88665.25
2024-03-16T02:24:30.101Z,88662.66
2024-03-16T02:27:15.329Z,88659.16
2024-03-16T02:30:00.409Z,88668.06
2024-03-16T02:32:45.476Z,88656.75
2024-03-16T02:35:30.559Z,88660.56
2024-03-16T02:38:15.590Z,88656.97
2024-03-16T02:41:00.778Z,88641.06
2024-03-16T02:43:45.821Z,88649.97
2024-03-16T02:46:30.953Z,88651.06
2024-03-16T02:49:16.102Z,88642.56
2024-03-16T02:52:01.300Z,88640.38
2024-03-16T02:54:46.490Z,88641.78
2024-03-16T02:57:31.436Z,88636.97
2024-03-16T03:00:16.538Z,88631.16
2024-03-16T03:03:01.472Z,88625.75
2024-03-16T03:05:46.596Z,88620.13
2024-03-16T03:08:31.811Z,88631.25
2024-03-16T03:11:16.983Z,88627.44
2024-03-16T03:14:02.160Z,88634.75
2024-03-16T03:16:47.241Z,88634.22
2024-03-16T03:19:32.478Z,88622.69
2024-03-16T03:22:17.576Z,88618.16
2024-03-16T03:25:02.937Z,88622.06
2024-03-16T03:27:47.958Z,88626.66
2024-03-16T03:30:33.145Z,88630.66
2024-03-16T03:33:18.345Z,88632.34
2024-03-16T03:36:03.336Z,88644.94
2024-03-16T03:38:48.526Z,88643.94
2024-03-16T03:41:33.549Z,88651.00
2024-03-16T03:44:18.864Z,88652.63
2024-03-16T03:47:03.962Z,88644.66
2024-03-16T03:49:49.002Z,88647.13
2024-03-16T03:52:34.172Z,88662.28
2024-03-16T03:55:19.219Z,88659.41
2024-03-16T03:58:04.653Z,88666.63
2024-03-16T04:00:49.653Z,88670.34
2024-03-16T04:03:34.796Z,88670.69
2024-03-16T04:06:19.871Z,88678.84
2024-03-16T04:09:04.967Z,88682.69
2024-03-16T04:11:50.176Z,88674.03
2024-03-16T04:14:35.248Z,88675.94
2024-03-16T04:17:20.320Z,88680.41
2024-03-16T04:20:05.449Z,88677.09
2024-03-16T04:22:50.590Z,88680.22
2024-03-16T04:25:35.781Z,88686.53
2024-03-16T04:28:20.967Z,88685.81
2024-03-16T04:31:06.329Z,88685.41
2024-03-16T04:33:51.153Z,88687.88
2024-03-16T04:36:36.430Z,88693.16
2024-03-16T04:39:21.459Z,88692.75
2024-03-16T04:42:06.739Z,88706.22
2024-03-16T04:44:51.792Z,88713.88
2024-03-16T04:47:37.050Z,88710.91
2024-03-16T04:50:22.132Z,88707.56
2024-03-16T04:53:07.170Z,88712.59
2024-03-16T04:55:52.460Z,88720.41
2024-03-16T04:58:37.594Z,88720.16
2024-03-16T05:01:22.835Z,88725.03
2024-03-16T05:04:07.745Z,88726.28
2024-03-16T05:06:58.651Z,88722.94
2024-03-16T05:09:43.667Z,88723.06
2024-03-16T05:12:28.899Z,88732.19
2024-03-16T05:15:13.957Z,88735.13
2024-03-16T05:17:59.261Z,88741.66
2024-03-16T05:20:44.210Z,88744.69
2024-03-16T05:23:29.438Z,88736.59
2024-03-16T05:26:14.436Z,88742.78
2024-03-16T05:28:59.579Z,88737.88
2024-03-16T05:31:44.722Z,88740.69
2024-03-16T05:34:29.699Z,88747.09
2024-03-16T05:37:15.100Z,88746.28
2024-03-16T05:40:00.271Z,88755.00
2024-03-16T05:42:45.301Z,88757.31
2024-03-16T05:45:30.364Z,88751.91
2024-03-16T05:48:15.539Z,88761.88
2024-03-16T05:51:00.682Z,88765.97
2024-03-16T05:53:45.804Z,88759.16
2024-03-16T05:56:30.971Z,88766.72
2024-03-16T05:59:15.929Z,88770.47
2024-03-16T06:02:01.120Z,88774.69
2024-03-16T06:04:46.177Z,88774.88
2024-03-16T06:07:31.264Z,88776.50
2024-03-16T06:10:16.547Z,88779.78
2024-03-16T06:13:01.579Z,88790.06
2024-03-16T06:15:46.753Z,88793.69
2024-03-16T06:18:31.905Z,88807.88
2024-03-16T06:21:17.004Z,88805.56
2024-03-16T06:24:02.106Z,88810.53
2024-03-16T06:26:47.384Z,88813.78
2024-03-16T06:29:32.483Z,88823.41
2024-03-16T06:32:17.543Z,88824.31
2024-03-16T06:35:02.745Z,88817.94
2024-03-16T06:37:47.844Z,88813.66
2024-03-16T06:40:32.929Z,88826.91
2024-03-16T06:43:18.054Z,88822.56
2024-03-16T06:46:03.221Z,88824.75
2024-03-16T06:48:48.365Z,88826.50
2024-03-16T06:51:33.652Z,88830.53
2024-03-16T06:54:18.681Z,88841.19
2024-03-16T06:57:03.742Z,88843.78
2024-03-16T06:59:48.958Z,88851.38
2024-03-16T07:02:34.055Z,88843.56
2024-03-16T07:05:19.250Z,88845.88
2024-03-16T07:08:04.268Z,88841.19
2024-03-16T07:10:49.422Z,88845.34
2024-03-16T07:13:34.385Z,88857.16
2024-03-16T07:16:19.547Z,88856.28
2024-03-16T07:19:04.729Z,88862.34
2024-03-16T07:21:49.710Z,88853.22
2024-03-16T07:24:34.912Z,88867.97
2024-03-16T07:27:19.736Z,88861.81
2024-03-16T07:30:04.901Z,88863.13
2024-03-16T07:32:50.004Z,88872.84
2024-03-16T07:35:34.942Z,88868.16
2024-03-16T07:38:20.040Z,88862.81
2024-03-16T07:41:05.074Z,88860.97
2024-03-16T07:43:50.294Z,88871.03
2024-03-16T07:46:35.396Z,88880.31
2024-03-16T07:49:20.790Z,88871.13
2024-03-16T07:52:05.926Z,88860.84
2024-03-16T07:54:50.991Z,88887.03
2024-03-16T07:57:36.247Z,88883.56
2024-03-16T08:00:21.154Z,88890.41
2024-03-16T08:03:06.409Z,88891.31
2024-03-16T08:05:51.571Z,88888.56
2024-03-16T08:08:36.800Z,88896.88
2024-03-16T08:11:21.817Z,88889.50
2024-03-16T08:14:06.960Z,88895.13
2024-03-16T08:16:52.061Z,88901.78
2024-03-16T08:19:37.124Z,88894.47
2024-03-16T08:22:22.299Z,88892.75
2024-03-16T08:25:07.319Z,88897.09
2024-03-16T08:27:52.352Z,88893.75
2024-03-16T08:30:37.359Z,88902.63
2024-03-16T08:33:22.533Z,88896.94
2024-03-16T08:36:07.461Z,88912.09
2024-03-16T08:38:52.528Z,88907.13
2024-03-16T08:41:37.817Z,88900.88
2024-03-16T08:44:22.695Z,88907.81
2024-03-16T08:47:07.847Z,88919.53
2024-03-16T08:49:52.800Z,88920.09
2024-03-16T08:52:38.974Z,88915.19
2024-03-16T08:55:24.444Z,88915.75
2024-03-16T08:58:09.524Z,88919.72
2024-03-16T09:00:55.022Z,88921.75
2024-03-16T09:03:39.746Z,88912.56
2024-03-16T09:06:24.876Z,88913.47
2024-03-16T09:09:09.961Z,88916.00
2024-03-16T09:11:55.292Z,88907.63
2024-03-16T09:14:40.371Z,88922.97
2024-03-16T09:17:25.463Z,88917.88
2024-03-16T09:20:10.892Z,88918.50
2024-03-16T09:22:55.784Z,88916.78
2024-03-16T09:25:40.985Z,88923.03
2024-03-16T09:28:26.107Z,88920.41
2024-03-16T09:31:11.025Z,88923.88
2024-03-16T09:33:56.178Z,88926.06
2024-03-16T09:36:41.215Z,88932.78
2024-03-16T09:39:26.318Z,88941.53
2024-03-16T09:42:11.293Z,88932.56
